Garden Valley, ID (83622)

3:39 AM MDT on April 28, 2017 (GMT -0600)
Crouch Idaho | | Change Station

Elev 3129 ft 44.12 °N, 115.97 °W | Updated 4 seconds ago

Partly Cloudy
Partly Cloudy
27.8 °F
Feels Like 28 °F
N
0.0
Wind Variable Wind from NE

Today
High -- | Low -- °F
--% Chance of Precip.
Yesterday
High -- | Low -- °F
Precip. -- in
Pressure 30.01 in
Visibility 10.0 miles
Clouds Clear
Windchill 28 °F
Dew Point 27 °F
Humidity 98%
Rainfall 0.00 in
Snow Depth Not available.
6:39 AM 8:44 PM
Waxing Crescent, 5% visible
METAR KBOI 280853Z 28008KT 10SM CLR 03/M01 A2999 RMK AO2 SLP160 T00281011 51005
Pressure 30.01 in
Visibility 10.0 miles
Clouds Clear
Windchill 28 °F
Dew Point 27 °F
Humidity 98%
Rainfall 0.00 in
Snow Depth Not available.
6:39 AM 8:44 PM
Waxing Crescent, 5% visible
METAR KBOI 280853Z 28008KT 10SM CLR 03/M01 A2999 RMK AO2 SLP160 T00281011 51005

Get Severe Weather Alerts

Thanks for signing up!

Be on the lookout for a verification email in your inbox.

You'll start receiving the daily forecast at 8 AM.

×

10-Day Weather Forecast

Almanac

Astronomy

Apr. 28, 2017 Rise Set
Actual Time
Civil Twilight
Nautical Twilight
Astronomical Twilight
Moon
Length of Visible Light
Length of Day
Tomorrow will be .
, % of the Moon is Illuminated

Today's Extremes

State Highs State Lows

Community

WunderPhotos

WunderBlog® & News

Nearby

Air Quality

  Air Quality AQ Index Pollutant
Not available.

Snow Depth

Station Depth Elevation

Earthquake Activity

City Distance Mag. Time & Date
Minimum magnitude displayed is 2.5.

Coastal Water Temperatures

Place Temperature

Stations

Nearby Weather Stations

Station Location Temp. Windchill Dew Point Humidity Wind Precip. Elev Updated Type
                   

Watches & Warnings

There are currently no watches in effect.